Flight Track Log - Related Links

Times and Time Zones

All times are in EDT time to prevent confusion due to time zone crossing. See the JBU1721 flight status page for this flight to view local times or setup timezone preferences in your user account.

Time Position Orientation Groundspeed Altitude Reporting Facility
EDT Latitude Longitude Course Direction KTS MPH feet Rate Location/Type
Thu 03:48:24 PM 28.4167 -81.3167 139° Southeast 147 169 700  Level Orlando TRACON
Thu 03:49:12 PM 28.3833 -81.2833 139° Southeast 204 235 1,600 1,588 Climbing Orlando TRACON
Thu 03:50:06 PM 28.3500 -81.2500 139° Southeast 245 282 3,400 2,400 Climbing Orlando TRACON
Thu 03:51:12 PM 28.3167 -81.1500 111° Southeast 282 325 6,400 2,762 Climbing Orlando TRACON
Thu 03:52:12 PM 28.2667 -81.0833 130° Southeast 295 339 9,200 2,650 Climbing Orlando TRACON
Thu 03:53:12 PM 28.2333 -81.0000 114° Southeast 305 351 11,700 1,905 Climbing Orlando TRACON
Thu 03:54:18 PM 28.1833 -80.9000 120° Southeast 357 411 13,200 1,534 Climbing Orlando TRACON
Thu 04:05:00 PM 27.4483 -80.9473 149° Southeast  Level Estimated
Thu 04:07:17 PM 26.9464 -80.0189 156° South 422 486 33,300  Level Miami Center
Thu 04:08:17 PM 26.8469 -79.9836 162° South 416 479 34,000 800 Climbing Miami Center
Thu 04:09:17 PM 26.7244 -79.9453 164° South 416 479 34,900 600 Climbing Miami Center
Thu 04:10:17 PM 26.6208 -79.9125 164° South 416 479 35,200 400 Climbing Miami Center
Thu 04:11:17 PM 26.4964 -79.8697 163° South 416 479 35,700 500 Climbing Miami Center
Thu 04:12:00 PM 26.8060 -80.7141 156° South  Level Estimated
Thu 04:12:17 PM 26.3947 -79.8347 163° South 416 479 36,200  Level Miami Center
Thu 04:13:17 PM 26.2722 -79.7969 165° South 416 479 36,700 400 Climbing Miami Center
Thu 04:14:17 PM 26.1728 -79.7619 162° South 411 473 37,000 150 Climbing Miami Center
Thu 04:15:17 PM 26.0606 -79.7247 163° South 416 479 37,000  Level Miami Center
Thu 04:16:17 PM 25.9483 -79.6942 166° South 421 484 37,000  Level Miami Center
Thu 04:17:17 PM 25.8319 -79.6661 168° South 421 484 37,000  Level Miami Center
Thu 04:18:17 PM 25.7156 -79.6403 169° South 421 484 37,000  Level Miami Center
Thu 04:19:17 PM 25.5989 -79.6122 168° South 427 491 37,000  Level Miami Center
Thu 04:20:17 PM 25.4844 -79.5844 168° South 427 491 37,000  Level Miami Center
Thu 04:21:17 PM 25.3658 -79.5611 170° South 427 491 37,000  Level Miami Center
Thu 04:22:17 PM 25.2494 -79.5331 168° South 427 491 37,000  Level Miami Center
Thu 04:23:17 PM 25.1350 -79.5078 169° South 427 491 37,000  Level Miami Center
Thu 04:24:17 PM 25.0183 -79.4800 168° South 427 491 37,000  Level Miami Center
Thu 04:25:17 PM 24.9061 -79.4547 168° South 427 491 37,000  Level Miami Center
Thu 04:26:17 PM 24.7875 -79.4294 169° South 427 491 37,000  Level Miami Center
Thu 04:27:17 PM 24.6731 -79.4042 169° South 427 491 37,000  Level Miami Center
Thu 04:28:17 PM 24.5564 -79.3789 169° South 427 491 37,000  Level Miami Center
Thu 04:29:17 PM 24.4397 -79.3514 168° South 427 491 37,000  Level Miami Center
Thu 04:30:17 PM 24.3233 -79.3239 168° South 427 491 37,000  Level Miami Center
Thu 04:31:17 PM 24.2044 -79.2989 169° South 432 497 37,000  Level Miami Center
Thu 04:32:17 PM 24.0900 -79.2739 169° South 426 490 37,000  Level Miami Center
Thu 04:34:00 PM 23.9718 -79.1385 160° South  Level FlightAware Approximate
Thu 04:41:00 PM 23.2764 -78.9079 169° South  Level FlightAware Approximate
Thu 04:42:00 PM 23.1743 -78.8860 169° South  Level FlightAware Approximate
Thu 04:43:00 PM 23.0721 -78.8641 169° South  Level FlightAware Approximate
Thu 04:44:00 PM 22.9699 -78.8423 169° South  Level FlightAware Approximate
Thu 04:45:00 PM 22.8677 -78.8205 169° South  Level FlightAware Approximate
Thu 04:46:00 PM 22.7655 -78.7987 169° South  Level FlightAware Approximate
Thu 04:47:00 PM 22.6633 -78.7769 169° South  Level FlightAware Approximate
Thu 04:48:00 PM 22.5611 -78.7552 169° South  Level FlightAware Approximate
Thu 04:49:00 PM 22.4589 -78.7336 169° South  Level FlightAware Approximate
Thu 04:50:00 PM 22.3567 -78.7119 169° South  Level FlightAware Approximate
Thu 04:51:00 PM 22.2545 -78.6903 169° South  Level FlightAware Approximate
Thu 04:52:00 PM 22.1523 -78.6687 169° South  Level FlightAware Approximate
Thu 04:53:00 PM 22.0501 -78.6472 169° South  Level FlightAware Approximate
Thu 04:54:00 PM 21.9479 -78.6257 169° South  Level FlightAware Approximate
Thu 04:55:00 PM 21.8457 -78.6042 169° South  Level FlightAware Approximate
Thu 04:56:00 PM 21.7435 -78.5828 169° South  Level FlightAware Approximate
Thu 04:57:00 PM 21.6413 -78.5613 169° South  Level FlightAware Approximate
Thu 04:58:00 PM 21.5390 -78.5400 169° South  Level FlightAware Approximate
Thu 04:59:00 PM 21.4368 -78.5186 169° South  Level FlightAware Approximate
Thu 05:00:00 PM 21.3346 -78.4973 169° South  Level FlightAware Approximate
Thu 05:01:00 PM 21.2323 -78.4760 169° South  Level FlightAware Approximate
Thu 05:02:00 PM 21.1301 -78.4547 169° South  Level FlightAware Approximate
Thu 05:03:00 PM 21.0279 -78.4334 169° South  Level FlightAware Approximate
Thu 05:04:00 PM 20.9256 -78.4122 169° South  Level FlightAware Approximate
Thu 05:05:00 PM 20.8234 -78.3913 169° South  Level FlightAware Approximate
Thu 05:06:00 PM 20.7210 -78.3709 169° South  Level FlightAware Approximate
Thu 05:07:00 PM 20.6192 -78.3476 168° South  Level FlightAware Approximate
Thu 05:08:00 PM 20.5175 -78.3237 168° South  Level FlightAware Approximate
Thu 05:09:00 PM 20.4157 -78.2998 168° South  Level FlightAware Approximate
Thu 05:10:00 PM 20.3138 -78.2771 168° South  Level FlightAware Approximate
Thu 05:11:00 PM 20.2121 -78.2530 167° South  Level FlightAware Approximate
Thu 05:12:00 PM 20.1097 -78.2330 170° South  Level FlightAware Approximate
Thu 05:13:00 PM 20.0072 -78.2138 170° South  Level FlightAware Approximate
Thu 05:14:00 PM 19.9044 -78.1972 168° South  Level FlightAware Approximate
Thu 05:15:00 PM 19.8027 -78.1737 168° South  Level FlightAware Approximate
Thu 05:16:00 PM 19.7009 -78.1502 168° South  Level FlightAware Approximate
Thu 05:17:00 PM 19.5986 -78.1297 169° South  Level FlightAware Approximate
Thu 05:18:00 PM 19.4962 -78.1092 169° South  Level FlightAware Approximate
Thu 05:19:00 PM 19.3939 -78.0887 169° South  Level FlightAware Approximate
Thu 05:20:00 PM 19.2915 -78.0683 169° South  Level FlightAware Approximate
Thu 05:21:00 PM 19.1892 -78.0478 169° South  Level FlightAware Approximate
Thu 05:22:00 PM 19.0871 -78.0265 168° South  Level FlightAware Approximate
Thu 05:23:00 PM 18.9853 -78.0030 168° South  Level FlightAware Approximate
Thu 05:24:00 PM 18.8835 -77.9800 169° South  Level FlightAware Approximate
Thu 05:25:00 PM 18.7812 -77.9596 169° South  Level FlightAware Approximate
Thu 05:26:00 PM 18.6789 -77.9406 167° South  Level FlightAware Approximate
Thu 05:27:00 PM 18.5769 -77.9187 169° South  Level FlightAware Approximate
Thu 05:28:00 PM 18.5000 -77.9000 167° South  Level FlightAware Approximate
Thu 05:29:00 PM 18.5037 -77.9134 167° South  Level Estimated
Thu 05:30:00 PM 18.5037 -77.9134 167° South  Level Estimated
Thu 05:31:00 PM 18.5037 -77.9134 167° South  Level Estimated
Thu 05:32:00 PM 18.5037 -77.9134 167° South  Level Estimated
Thu 05:33:00 PM 18.5037 -77.9134 167° South  Level Estimated
Thu 05:34:00 PM 18.5037 -77.9134 167° South  Level Estimated
Thu 05:35:00 PM 18.5037 -77.9134 167° South  Level Estimated

Login

Don't have an account? Register now (free) for customized features, flight alerts, and more!